Time;durP1;ratioP1;P1;durP2;ratioP2;P2;SDS_P1;SDS_P2;PMS_P1;PMS_P2;Temp;Humidity;BMP_temperature;BMP_pressure;BME280_temperature;BME280_humidity;BME280_pressure;Samples;Min_cycle;Max_cycle;Signal;HPM_P1;HPM_P2
2023/01/14 00:02:17;;;;;;;8.05;2.60;;;;;;;;;;5010937;28;20095;-80
2023/01/14 00:04:43;;;;;;;9.13;2.30;;;;;;;;;;5012486;28;20076;-80
2023/01/14 00:07:08;;;;;;;12.23;2.72;;;;;;;;;;5009407;28;20029;-80
2023/01/14 00:09:34;;;;;;;9.90;2.08;;;;;;;;;;5010336;28;20121;-80
2023/01/14 00:11:59;;;;;;;8.95;1.88;;;;;;;;;;5011710;28;20430;-80
2023/01/14 00:14:30;;;;;;;10.52;2.13;;;;;;;;;;5022883;28;20057;-80
2023/01/14 00:16:56;;;;;;;7.65;1.40;;;;;;;;;;5008282;28;20104;-79
2023/01/14 00:19:23;;;;;;;13.82;2.25;;;;;;;;;;5006022;28;20053;-80
2023/01/14 00:21:50;;;;;;;9.85;1.70;;;;;;;;;;5009862;28;20034;-80
2023/01/14 00:24:18;;;;;;;12.38;2.45;;;;;;;;;;5006319;28;20377;-80
2023/01/14 00:26:45;;;;;;;9.48;2.20;;;;;;;;;;5006513;28;20521;-80
2023/01/14 00:29:16;;;;;;;11.77;2.40;;;;;;;;;;5007358;28;20036;-80
2023/01/14 00:31:43;;;;;;;7.20;1.88;;;;;;;;;;5005933;28;20038;-80
2023/01/14 00:34:09;;;;;;;6.03;1.35;;;;;;;;;;5005949;28;20477;-80
2023/01/14 00:36:35;;;;;;;9.32;2.05;;;;;;;;;;5019618;28;20030;-80
2023/01/14 00:39:00;;;;;;;9.65;2.22;;;;;;;;;;5005117;28;20042;-80
2023/01/14 00:41:26;;;;;;;7.82;2.10;;;;;;;;;;5007349;28;20104;-80
2023/01/14 00:43:57;;;;;;;9.50;1.85;;;;;;;;;;5010763;28;20694;-80
2023/01/14 00:46:29;;;;;;;9.07;1.38;;;;;;;;;;5008936;28;20022;-80
2023/01/14 00:48:55;;;;;;;11.02;2.15;;;;;;;;;;5007196;28;20072;-80
2023/01/14 00:51:21;;;;;;;6.97;1.50;;;;;;;;;;5010273;28;20502;-80
2023/01/14 00:53:47;;;;;;;12.18;1.48;;;;;;;;;;5006679;28;20394;-80
2023/01/14 00:56:14;;;;;;;8.02;1.75;;;;;;;;;;5011621;28;20109;-80
2023/01/14 00:58:40;;;;;;;8.43;1.27;;;;;;;;;;5011813;28;20022;-80
2023/01/14 01:01:06;;;;;;;9.82;1.60;;;;;;;;;;5011243;28;20394;-80
2023/01/14 01:03:32;;;;;;;5.72;1.17;;;;;;;;;;5013249;28;20025;-80
2023/01/14 01:05:58;;;;;;;10.55;1.52;;;;;;;;;;5009219;28;20033;-80
2023/01/14 01:08:25;;;;;;;8.80;1.58;;;;;;;;;;5009090;28;21736;-80
2023/01/14 01:10:52;;;;;;;9.75;1.40;;;;;;;;;;5013962;28;20029;-80
2023/01/14 01:13:18;;;;;;;10.75;1.55;;;;;;;;;;5012601;28;20482;-80
2023/01/14 01:15:43;;;;;;;9.15;1.40;;;;;;;;;;5009043;28;20030;-80
2023/01/14 01:18:11;;;;;;;9.52;1.90;;;;;;;;;;5005186;28;20037;-79
2023/01/14 01:20:37;;;;;;;4.63;1.58;;;;;;;;;;5024266;28;20026;-80
2023/01/14 01:23:04;;;;;;;5.40;1.27;;;;;;;;;;5011522;28;20080;-80
2023/01/14 01:25:30;;;;;;;11.15;1.65;;;;;;;;;;5020979;28;20036;-80
2023/01/14 01:27:56;;;;;;;8.43;1.38;;;;;;;;;;5013616;28;20033;-80
2023/01/14 01:30:22;;;;;;;5.53;1.23;;;;;;;;;;5000000;28;20477;-81
2023/01/14 01:32:48;;;;;;;9.27;1.35;;;;;;;;;;5005193;28;20038;-81
2023/01/14 01:35:13;;;;;;;5.90;1.40;;;;;;;;;;5012754;28;20429;-80
2023/01/14 01:37:39;;;;;;;11.15;1.45;;;;;;;;;;5005389;28;20093;-81
2023/01/14 01:40:06;;;;;;;9.23;1.75;;;;;;;;;;5005308;28;20034;-80
2023/01/14 01:42:35;;;;;;;8.13;1.30;;;;;;;;;;5009544;28;20447;-80
2023/01/14 01:45:38;;;;;;;12.30;2.40;;;;;;;;;;5006506;28;20021;-81
2023/01/14 01:48:11;;;;;;;10.93;1.98;;;;;;;;;;5017109;28;20470;-81
2023/01/14 01:50:37;;;;;;;6.80;1.48;;;;;;;;;;5012419;28;20025;-81
2023/01/14 01:53:04;;;;;;;5.72;1.52;;;;;;;;;;5010462;28;20482;-81
2023/01/14 01:55:34;;;;;;;12.40;1.67;;;;;;;;;;5010649;28;20022;-81
2023/01/14 01:58:01;;;;;;;6.22;1.60;;;;;;;;;;5012366;28;20363;-81
2023/01/14 02:00:26;;;;;;;6.60;1.50;;;;;;;;;;5013285;28;20167;-80
2023/01/14 02:02:57;;;;;;;9.93;2.00;;;;;;;;;;5010445;28;20494;-80
2023/01/14 02:05:23;;;;;;;9.73;1.98;;;;;;;;;;5007359;28;20478;-81
2023/01/14 02:07:48;;;;;;;12.50;2.88;;;;;;;;;;5009446;28;20056;-80
2023/01/14 02:10:14;;;;;;;10.60;1.73;;;;;;;;;;5011680;28;20032;-80
2023/01/14 02:12:57;;;;;;;9.40;2.33;;;;;;;;;;5012137;28;20386;-80
2023/01/14 02:15:29;;;;;;;;;;;;;;;;;;5010011;28;20187;-80
2023/01/14 02:18:00;;;;;;;7.78;1.90;;;;;;;;;;5006522;28;19959;-80
2023/01/14 02:20:43;;;;;;;9.20;1.85;;;;;;;;;;5018003;28;20029;-80
2023/01/14 02:23:25;;;;;;;12.13;2.13;;;;;;;;;;5000393;28;20056;-80
2023/01/14 02:26:29;;;;;;;9.90;1.88;;;;;;;;;;5001771;28;20030;-80
2023/01/14 02:29:31;;;;;;;11.32;2.47;;;;;;;;;;4936698;29;20033;-80
2023/01/14 02:32:15;;;;;;;8.13;1.90;;;;;;;;;;4939750;29;20429;-80
2023/01/14 02:35:16;;;;;;;8.90;2.03;;;;;;;;;;4992614;28;20411;-80
2023/01/14 02:38:24;;;;;;;15.15;2.22;;;;;;;;;;4973505;28;20433;-80
2023/01/14 02:41:17;;;;;;;12.80;2.20;;;;;;;;;;4999784;28;20041;-80
2023/01/14 02:44:10;;;;;;;10.33;2.53;;;;;;;;;;5004056;28;20029;-80
2023/01/14 02:46:58;;;;;;;13.90;2.30;;;;;;;;;;5000736;28;20018;-80
2023/01/14 02:49:27;;;;;;;8.05;1.95;;;;;;;;;;5000088;28;20154;-80
2023/01/14 02:51:55;;;;;;;13.38;2.03;;;;;;;;;;5002614;28;20503;-80
2023/01/14 02:54:21;;;;;;;10.38;1.73;;;;;;;;;;5002911;28;20029;-80
2023/01/14 02:56:48;;;;;;;12.40;2.20;;;;;;;;;;5000345;28;20040;-80
2023/01/14 02:59:22;;;;;;;12.60;2.50;;;;;;;;;;5005760;28;20963;-80
2023/01/14 03:02:06;;;;;;;11.05;1.95;;;;;;;;;;5002164;28;20021;-80
2023/01/14 03:04:42;;;;;;;13.85;2.30;;;;;;;;;;5015601;28;20041;-80
2023/01/14 03:07:16;;;;;;;9.90;1.80;;;;;;;;;;5002358;28;20030;-80
2023/01/14 03:10:00;;;;;;;10.75;2.08;;;;;;;;;;5007080;28;20390;-80
2023/01/14 03:12:38;;;;;;;14.18;2.20;;;;;;;;;;5005080;28;20092;-80
2023/01/14 03:15:20;;;;;;;11.82;2.03;;;;;;;;;;5008217;28;20030;-80
2023/01/14 03:17:53;;;;;;;15.07;2.58;;;;;;;;;;5005900;28;21750;-80
2023/01/14 03:20:30;;;;;;;10.43;1.52;;;;;;;;;;4998764;28;20446;-80
2023/01/14 03:23:00;;;;;;;11.32;2.03;;;;;;;;;;5007413;28;20109;-80
2023/01/14 03:25:28;;;;;;;10.13;2.17;;;;;;;;;;5004907;28;20022;-80
2023/01/14 03:27:57;;;;;;;11.93;2.55;;;;;;;;;;5003547;28;20372;-80
2023/01/14 03:30:37;;;;;;;13.45;2.47;;;;;;;;;;5000252;28;20040;-80
2023/01/14 03:33:07;;;;;;;12.30;2.60;;;;;;;;;;5018137;28;20048;-80
2023/01/14 03:35:36;;;;;;;11.60;1.95;;;;;;;;;;5003859;28;20034;-81
2023/01/14 03:38:10;;;;;;;13.73;2.08;;;;;;;;;;5004434;28;20486;-80
2023/01/14 03:40:37;;;;;;;17.75;2.13;;;;;;;;;;5004839;28;20025;-80
2023/01/14 03:43:12;;;;;;;10.57;2.13;;;;;;;;;;5009841;28;20049;-80
2023/01/14 03:45:40;;;;;;;12.57;1.98;;;;;;;;;;5008976;28;20026;-80
2023/01/14 03:48:06;;;;;;;10.48;1.98;;;;;;;;;;5009779;28;20561;-80
2023/01/14 03:50:41;;;;;;;7.55;1.85;;;;;;;;;;5007161;28;20493;-80
2023/01/14 03:53:33;;;;;;;9.45;2.10;;;;;;;;;;5021143;28;20037;-80
2023/01/14 03:56:20;;;;;;;9.55;1.52;;;;;;;;;;5005018;28;20494;-80
2023/01/14 03:59:04;;;;;;;14.35;2.05;;;;;;;;;;5005582;28;20556;-81
2023/01/14 04:01:41;;;;;;;14.57;2.08;;;;;;;;;;5006675;28;20041;-80
2023/01/14 04:04:07;;;;;;;8.30;1.70;;;;;;;;;;5001523;28;20061;-81
2023/01/14 04:06:33;;;;;;;11.80;2.05;;;;;;;;;;5002423;28;20913;-80
2023/01/14 04:08:58;;;;;;;8.52;1.35;;;;;;;;;;5006532;28;20029;-81
2023/01/14 04:11:23;;;;;;;8.88;1.98;;;;;;;;;;5005318;28;20444;-80
2023/01/14 04:16:33;;;;;;;8.20;1.42;;;;;;;;;;5006762;28;20514;-80
2023/01/14 04:18:58;;;;;;;9.05;1.45;;;;;;;;;;5006005;28;20100;-81
2023/01/14 04:21:23;;;;;;;10.02;1.90;;;;;;;;;;5004170;28;20497;-80
2023/01/14 04:23:49;;;;;;;8.35;1.80;;;;;;;;;;5004260;28;20140;-80
2023/01/14 04:26:14;;;;;;;12.18;2.22;;;;;;;;;;5003476;28;20129;-80
2023/01/14 04:28:40;;;;;;;10.05;1.83;;;;;;;;;;5011993;28;20022;-80
2023/01/14 04:31:05;;;;;;;7.97;1.60;;;;;;;;;;4995116;28;20509;-80
2023/01/14 04:33:30;;;;;;;12.13;1.58;;;;;;;;;;4985587;28;20042;-80
2023/01/14 04:35:56;;;;;;;10.75;2.15;;;;;;;;;;5002667;28;20553;-80
2023/01/14 04:38:22;;;;;;;16.05;2.42;;;;;;;;;;5006867;28;20234;-80
2023/01/14 04:40:49;;;;;;;12.35;1.98;;;;;;;;;;5003667;28;20044;-80
2023/01/14 04:43:15;;;;;;;14.15;2.13;;;;;;;;;;5020501;28;20033;-80
2023/01/14 04:45:40;;;;;;;10.18;2.03;;;;;;;;;;5010970;28;20034;-80
2023/01/14 04:48:05;;;;;;;6.88;1.95;;;;;;;;;;5020914;28;20405;-80
2023/01/14 04:50:31;;;;;;;14.23;1.88;;;;;;;;;;5002948;28;20033;-80
2023/01/14 04:53:18;;;;;;;7.82;1.50;;;;;;;;;;5008130;28;20030;-80
2023/01/14 04:55:45;;;;;;;8.13;1.38;;;;;;;;;;5005942;28;20030;-80
2023/01/14 04:58:14;;;;;;;9.88;2.10;;;;;;;;;;5018695;28;20041;-80
2023/01/14 05:00:40;;;;;;;8.27;1.95;;;;;;;;;;5009509;28;20029;-80
2023/01/14 05:03:08;;;;;;;9.38;1.92;;;;;;;;;;5007468;28;20021;-80
2023/01/14 05:05:35;;;;;;;8.65;1.63;;;;;;;;;;5004374;28;20029;-80
2023/01/14 05:08:03;;;;;;;9.38;1.50;;;;;;;;;;5010375;28;20417;-80
2023/01/14 05:10:29;;;;;;;11.18;1.85;;;;;;;;;;5007108;28;20492;-80
2023/01/14 05:12:57;;;;;;;8.88;1.52;;;;;;;;;;5010317;28;20474;-80
2023/01/14 05:15:24;;;;;;;11.95;1.50;;;;;;;;;;5005480;28;20454;-80
2023/01/14 05:17:49;;;;;;;12.90;1.67;;;;;;;;;;5009951;28;20045;-80
2023/01/14 05:20:15;;;;;;;12.95;1.55;;;;;;;;;;5004283;28;20071;-80
2023/01/14 05:22:41;;;;;;;13.77;1.70;;;;;;;;;;5000757;28;20030;-80
2023/01/14 05:25:07;;;;;;;9.05;1.70;;;;;;;;;;5004892;28;20030;-80
2023/01/14 05:27:33;;;;;;;6.28;1.48;;;;;;;;;;5001363;28;20033;-80
2023/01/14 05:29:58;;;;;;;10.90;2.40;;;;;;;;;;5008065;28;20030;-81
2023/01/14 05:32:24;;;;;;;11.93;1.98;;;;;;;;;;5006764;28;20034;-80
2023/01/14 05:34:49;;;;;;;13.25;1.70;;;;;;;;;;5011047;28;20029;-80
2023/01/14 05:37:15;;;;;;;10.07;1.70;;;;;;;;;;5005626;28;20084;-80
2023/01/14 05:39:40;;;;;;;10.55;2.17;;;;;;;;;;5002056;28;20053;-80
2023/01/14 05:47:34;;;;;;;10.73;1.70;;;;;;;;;;5009739;28;20504;-80
2023/01/14 05:49:59;;;;;;;8.30;1.65;;;;;;;;;;5004808;28;20033;-81
2023/01/14 05:52:24;;;;;;;9.65;1.40;;;;;;;;;;5005151;28;20034;-80
2023/01/14 05:54:50;;;;;;;10.05;1.48;;;;;;;;;;5007805;28;20417;-80
2023/01/14 05:57:15;;;;;;;9.20;1.88;;;;;;;;;;5005842;28;20029;-81
2023/01/14 05:59:41;;;;;;;6.18;1.40;;;;;;;;;;5002927;28;20075;-80
2023/01/14 06:07:54;;;;;;;8.35;1.48;;;;;;;;;;4939004;28;20406;-80
2023/01/14 06:10:19;;;;;;;7.65;1.50;;;;;;;;;;4985372;28;20048;-80
2023/01/14 06:13:10;;;;;;;14.73;2.20;;;;;;;;;;5000848;28;20120;-80
2023/01/14 06:15:36;;;;;;;6.05;1.35;;;;;;;;;;5004741;28;20104;-80
2023/01/14 06:18:10;;;;;;;9.25;2.17;;;;;;;;;;5010131;28;20033;-80
2023/01/14 06:20:39;;;;;;;11.45;1.40;;;;;;;;;;5008211;28;20445;-80
2023/01/14 06:23:05;;;;;;;8.98;1.60;;;;;;;;;;5002824;28;20028;-80
2023/01/14 06:25:31;;;;;;;16.77;2.53;;;;;;;;;;5007683;28;20025;-81
2023/01/14 06:27:57;;;;;;;6.85;1.58;;;;;;;;;;5001527;28;20085;-81
2023/01/14 06:30:23;;;;;;;11.45;1.63;;;;;;;;;;5013411;28;20113;-80
2023/01/14 06:32:49;;;;;;;8.95;1.33;;;;;;;;;;5006255;28;20796;-80
2023/01/14 06:35:14;;;;;;;5.68;1.33;;;;;;;;;;5011441;28;20113;-80
2023/01/14 06:37:44;;;;;;;8.00;1.52;;;;;;;;;;5006995;28;20096;-80
2023/01/14 06:40:10;;;;;;;11.60;1.38;;;;;;;;;;5001315;28;20107;-81
2023/01/14 06:42:35;;;;;;;14.32;1.77;;;;;;;;;;5005424;28;20053;-80
2023/01/14 06:45:01;;;;;;;7.97;1.52;;;;;;;;;;5010360;28;20068;-80
2023/01/14 06:47:26;;;;;;;12.05;1.52;;;;;;;;;;4999917;28;20029;-80
2023/01/14 06:49:51;;;;;;;8.02;1.55;;;;;;;;;;4998549;28;20030;-80
2023/01/14 06:52:17;;;;;;;6.18;1.20;;;;;;;;;;5005417;28;20111;-80
2023/01/14 06:54:42;;;;;;;10.40;1.80;;;;;;;;;;5004471;28;20038;-80
2023/01/14 06:57:08;;;;;;;10.75;1.58;;;;;;;;;;5003294;28;20026;-80
2023/01/14 06:59:33;;;;;;;8.27;1.65;;;;;;;;;;5010510;28;20029;-80
2023/01/14 07:01:58;;;;;;;8.98;1.30;;;;;;;;;;5003869;28;20022;-80
2023/01/14 07:04:24;;;;;;;6.72;1.10;;;;;;;;;;5004909;28;20053;-80
2023/01/14 07:06:49;;;;;;;8.85;1.67;;;;;;;;;;5002778;28;20026;-80
2023/01/14 07:09:15;;;;;;;9.77;1.95;;;;;;;;;;5004459;28;20022;-80
2023/01/14 07:11:42;;;;;;;6.25;1.35;;;;;;;;;;5009291;28;20038;-80
2023/01/14 07:14:07;;;;;;;8.23;1.48;;;;;;;;;;5001862;28;20486;-80
2023/01/14 07:16:33;;;;;;;8.70;1.80;;;;;;;;;;5017301;28;20096;-81
2023/01/14 07:18:58;;;;;;;9.00;1.33;;;;;;;;;;5005386;28;20029;-81
2023/01/14 07:21:24;;;;;;;8.32;1.52;;;;;;;;;;5004111;28;20037;-81
2023/01/14 07:23:50;;;;;;;5.13;1.20;;;;;;;;;;5005002;28;20037;-80
2023/01/14 07:26:17;;;;;;;9.15;1.42;;;;;;;;;;5004356;28;20104;-80
2023/01/14 07:28:42;;;;;;;5.75;1.23;;;;;;;;;;5002324;28;20483;-80
2023/01/14 07:31:08;;;;;;;8.75;1.55;;;;;;;;;;5001706;28;20110;-81
2023/01/14 07:33:34;;;;;;;5.85;1.30;;;;;;;;;;5008299;28;20440;-81
2023/01/14 07:35:59;;;;;;;5.35;1.40;;;;;;;;;;5003531;28;20030;-80
2023/01/14 07:38:25;;;;;;;9.18;1.67;;;;;;;;;;5004009;28;20211;-81
2023/01/14 07:40:50;;;;;;;7.68;1.15;;;;;;;;;;5000188;28;20030;-80
2023/01/14 07:43:16;;;;;;;5.75;1.20;;;;;;;;;;5008138;28;20048;-81
2023/01/14 07:45:41;;;;;;;9.07;1.38;;;;;;;;;;5001526;28;20033;-80
2023/01/14 07:48:07;;;;;;;6.88;1.80;;;;;;;;;;5020562;28;20034;-81
2023/01/14 07:50:33;;;;;;;6.13;1.42;;;;;;;;;;5001592;28;20017;-80
2023/01/14 07:52:59;;;;;;;4.68;1.52;;;;;;;;;;5000870;28;20034;-80
2023/01/14 07:55:26;;;;;;;5.22;1.38;;;;;;;;;;5000790;28;20030;-80
2023/01/14 07:57:52;;;;;;;6.95;1.30;;;;;;;;;;5015334;28;20022;-80
2023/01/14 08:00:18;;;;;;;8.00;1.42;;;;;;;;;;4999427;28;20390;-80
2023/01/14 08:02:44;;;;;;;8.90;1.50;;;;;;;;;;5003674;28;20385;-80
2023/01/14 08:05:10;;;;;;;5.28;1.08;;;;;;;;;;5002360;28;20045;-80
2023/01/14 08:07:35;;;;;;;7.93;1.40;;;;;;;;;;4998681;28;20030;-80
2023/01/14 08:10:01;;;;;;;4.65;1.67;;;;;;;;;;4999811;28;20034;-80
2023/01/14 08:12:28;;;;;;;5.72;1.40;;;;;;;;;;5005558;28;20037;-80
2023/01/14 08:14:54;;;;;;;4.90;1.10;;;;;;;;;;5001091;28;20030;-80
2023/01/14 08:17:19;;;;;;;5.60;1.17;;;;;;;;;;5000620;28;20038;-80
2023/01/14 08:19:45;;;;;;;4.95;1.17;;;;;;;;;;5020957;28;20026;-80
2023/01/14 08:22:12;;;;;;;3.75;1.17;;;;;;;;;;5004581;28;20386;-80
2023/01/14 08:24:38;;;;;;;5.50;1.35;;;;;;;;;;5003496;28;20108;-80
2023/01/14 08:27:04;;;;;;;4.85;1.38;;;;;;;;;;5006275;28;20022;-80
2023/01/14 08:29:29;;;;;;;4.05;1.38;;;;;;;;;;5007809;28;20033;-80
2023/01/14 08:31:55;;;;;;;5.13;1.55;;;;;;;;;;5003036;28;20022;-80
2023/01/14 08:34:22;;;;;;;8.23;1.88;;;;;;;;;;5006421;28;20041;-80
2023/01/14 08:36:48;;;;;;;4.38;1.38;;;;;;;;;;5005572;28;20033;-80
2023/01/14 08:39:14;;;;;;;6.32;1.58;;;;;;;;;;5022892;28;20076;-80
2023/01/14 08:41:40;;;;;;;7.70;1.50;;;;;;;;;;5000075;28;20120;-80
2023/01/14 08:44:05;;;;;;;5.15;1.50;;;;;;;;;;5004836;28;20042;-80
2023/01/14 08:46:32;;;;;;;6.25;1.27;;;;;;;;;;5020027;28;20053;-80
2023/01/14 08:48:58;;;;;;;5.25;1.92;;;;;;;;;;5008415;28;20116;-80
2023/01/14 08:51:26;;;;;;;6.53;1.52;;;;;;;;;;5004273;28;20120;-80
2023/01/14 08:53:54;;;;;;;4.60;1.38;;;;;;;;;;5004907;28;20053;-80
2023/01/14 08:56:19;;;;;;;3.50;1.35;;;;;;;;;;5014894;28;20040;-80
2023/01/14 08:58:45;;;;;;;3.50;1.17;;;;;;;;;;5004960;28;20033;-81
2023/01/14 09:01:12;;;;;;;3.90;1.60;;;;;;;;;;5021585;28;20021;-80
2023/01/14 09:03:38;;;;;;;6.22;1.60;;;;;;;;;;5005679;28;20242;-80
2023/01/14 09:06:09;;;;;;;5.15;1.45;;;;;;;;;;5006179;28;20390;-81
2023/01/14 09:17:08;;;;;;;4.00;1.20;;;;;;;;;;5007966;28;20448;-80
2023/01/14 09:19:41;;;;;;;3.42;1.30;;;;;;;;;;5004345;28;20488;-80
2023/01/14 09:22:09;;;;;;;3.00;1.30;;;;;;;;;;5007193;28;20030;-81
2023/01/14 09:24:34;;;;;;;4.35;1.10;;;;;;;;;;5004065;28;20390;-80
2023/01/14 09:27:00;;;;;;;5.78;1.40;;;;;;;;;;5004601;28;20322;-80
2023/01/14 09:29:25;;;;;;;3.92;1.33;;;;;;;;;;5006502;28;20029;-80
2023/01/14 09:31:51;;;;;;;2.95;1.10;;;;;;;;;;5003526;28;20528;-80
2023/01/14 09:34:16;;;;;;;4.03;1.20;;;;;;;;;;5002192;28;20474;-80
2023/01/14 09:36:42;;;;;;;3.20;1.05;;;;;;;;;;4999442;28;20038;-81
2023/01/14 09:39:07;;;;;;;5.15;1.30;;;;;;;;;;5006585;28;20026;-80
2023/01/14 09:41:36;;;;;;;3.83;1.13;;;;;;;;;;5006418;28;20061;-80
2023/01/14 09:44:05;;;;;;;3.00;1.00;;;;;;;;;;5006280;28;20545;-80
2023/01/14 09:46:31;;;;;;;3.90;1.10;;;;;;;;;;5007689;28;20030;-81
2023/01/14 09:49:01;;;;;;;2.90;0.88;;;;;;;;;;5000631;28;20060;-81
2023/01/14 09:51:39;;;;;;;3.10;0.93;;;;;;;;;;5002948;28;20041;-81
2023/01/14 09:54:16;;;;;;;4.53;1.00;;;;;;;;;;5004619;28;20044;-80
2023/01/14 09:57:08;;;;;;;4.60;1.10;;;;;;;;;;5004863;28;20025;-80
2023/01/14 10:00:00;;;;;;;4.30;0.90;;;;;;;;;;5005195;28;20541;-80
2023/01/14 10:02:42;;;;;;;2.80;1.08;;;;;;;;;;5009859;28;20037;-80
2023/01/14 10:05:10;;;;;;;2.80;1.08;;;;;;;;;;5005839;28;20053;-80
2023/01/14 10:07:36;;;;;;;3.97;1.05;;;;;;;;;;5011028;28;20056;-80
2023/01/14 10:10:03;;;;;;;2.58;0.93;;;;;;;;;;5008779;28;20061;-80
2023/01/14 10:12:39;;;;;;;4.72;1.23;;;;;;;;;;5008822;28;20040;-81
2023/01/14 10:15:54;;;;;;;3.22;1.00;;;;;;;;;;5010059;28;20061;-80
2023/01/14 10:18:54;;;;;;;3.42;1.10;;;;;;;;;;4995938;28;20033;-80
2023/01/14 10:21:29;;;;;;;4.07;1.20;;;;;;;;;;5007472;28;20029;-81
2023/01/14 10:23:55;;;;;;;6.10;1.15;;;;;;;;;;5011901;28;20029;-81
2023/01/14 10:26:22;;;;;;;4.68;1.13;;;;;;;;;;4999841;28;20033;-81
2023/01/14 10:28:50;;;;;;;7.30;1.25;;;;;;;;;;5005091;28;20116;-81
2023/01/14 10:31:22;;;;;;;2.97;1.10;;;;;;;;;;5006018;28;20025;-81
2023/01/14 10:33:52;;;;;;;5.05;0.93;;;;;;;;;;5019705;28;20466;-81
2023/01/14 10:36:23;;;;;;;5.15;1.25;;;;;;;;;;5010309;28;20769;-81
2023/01/14 10:38:49;;;;;;;6.88;1.65;;;;;;;;;;5002099;28;20058;-81
2023/01/14 10:41:48;;;;;;;5.03;1.13;;;;;;;;;;5001723;28;20448;-81
2023/01/14 10:44:33;;;;;;;3.90;1.30;;;;;;;;;;5008892;28;20034;-81
2023/01/14 10:47:12;;;;;;;6.50;1.50;;;;;;;;;;5004380;28;20298;-81
2023/01/14 10:49:42;;;;;;;2.72;1.27;;;;;;;;;;5022659;28;20037;-81
2023/01/14 10:52:23;;;;;;;5.55;1.20;;;;;;;;;;5008027;28;20048;-81
2023/01/14 10:55:11;;;;;;;2.95;1.17;;;;;;;;;;5003184;28;20120;-82
2023/01/14 10:57:44;;;;;;;3.42;0.90;;;;;;;;;;4996709;28;20421;-82
2023/01/14 11:00:36;;;;;;;5.00;1.05;;;;;;;;;;5010508;28;20030;-82
2023/01/14 11:03:05;;;;;;;3.17;1.20;;;;;;;;;;5004373;28;20454;-82
2023/01/14 11:05:39;;;;;;;3.22;1.30;;;;;;;;;;5008873;28;20880;-81
2023/01/14 11:08:14;;;;;;;4.18;1.40;;;;;;;;;;5004227;28;20042;-81
2023/01/14 11:10:43;;;;;;;2.67;1.30;;;;;;;;;;5021113;28;20030;-81
2023/01/14 11:13:31;;;;;;;4.03;1.25;;;;;;;;;;4993217;28;20100;-81
2023/01/14 11:15:57;;;;;;;2.13;0.95;;;;;;;;;;5006344;28;20025;-81
2023/01/14 11:18:31;;;;;;;4.70;1.55;;;;;;;;;;5008486;28;20387;-81
2023/01/14 11:21:06;;;;;;;2.63;1.10;;;;;;;;;;5009232;28;20029;-81
2023/01/14 11:23:37;;;;;;;4.40;1.40;;;;;;;;;;5024656;28;20075;-81
2023/01/14 11:26:19;;;;;;;2.97;0.98;;;;;;;;;;5021962;28;20033;-82
2023/01/14 11:28:46;;;;;;;4.55;1.20;;;;;;;;;;5014472;28;20033;-82
2023/01/14 11:31:17;;;;;;;3.25;1.05;;;;;;;;;;5003511;28;20121;-82
2023/01/14 11:33:52;;;;;;;3.85;0.95;;;;;;;;;;5003907;28;20037;-82
2023/01/14 11:36:26;;;;;;;3.47;0.85;;;;;;;;;;5005107;28;20036;-82
2023/01/14 11:38:56;;;;;;;2.47;0.98;;;;;;;;;;5009527;28;20026;-82
2023/01/14 11:41:39;;;;;;;3.97;1.00;;;;;;;;;;5023503;28;20034;-82
2023/01/14 11:44:05;;;;;;;;;;;;;;;;;;5002196;28;20038;-82
2023/01/14 11:46:33;;;;;;;2.15;0.90;;;;;;;;;;5025233;28;19920;-83
2023/01/14 11:49:20;;;;;;;3.17;0.75;;;;;;;;;;5010618;28;20124;-81
2023/01/14 11:52:02;;;;;;;2.50;0.70;;;;;;;;;;5009338;28;20034;-82
2023/01/14 11:54:39;;;;;;;1.40;0.68;;;;;;;;;;5014817;28;20037;-82
2023/01/14 11:57:13;;;;;;;2.28;0.70;;;;;;;;;;5013936;28;20124;-82
2023/01/14 11:59:39;;;;;;;2.33;0.60;;;;;;;;;;5021323;28;20033;-83
2023/01/14 12:02:18;;;;;;;1.92;0.60;;;;;;;;;;5013103;28;20034;-82
2023/01/14 12:04:59;;;;;;;1.58;0.60;;;;;;;;;;5018977;28;20049;-81
2023/01/14 12:07:31;;;;;;;1.02;0.47;;;;;;;;;;5005835;28;20026;-82
2023/01/14 12:10:13;;;;;;;2.22;0.50;;;;;;;;;;5014013;28;20021;-82
2023/01/14 12:18:39;;;;;;;0.85;0.52;;;;;;;;;;5011718;28;20072;-82
2023/01/14 12:21:06;;;;;;;2.45;0.60;;;;;;;;;;5008548;28;20022;-82
2023/01/14 12:23:42;;;;;;;2.28;0.70;;;;;;;;;;5009506;28;20417;-82
2023/01/14 12:26:15;;;;;;;1.80;0.75;;;;;;;;;;5012443;28;20033;-82
2023/01/14 12:28:48;;;;;;;2.53;0.80;;;;;;;;;;5010595;28;20026;-82
2023/01/14 12:31:22;;;;;;;1.80;0.82;;;;;;;;;;5015584;28;20033;-82
2023/01/14 12:34:32;;;;;;;2.33;0.82;;;;;;;;;;5009660;28;20037;-82
2023/01/14 12:37:15;;;;;;;1.88;0.60;;;;;;;;;;5027248;28;20029;-82
2023/01/14 12:45:47;;;;;;;1.38;0.50;;;;;;;;;;5011274;28;20504;-82
2023/01/14 12:48:21;;;;;;;0.80;0.50;;;;;;;;;;5013042;28;20025;-82
2023/01/14 12:51:24;;;;;;;2.42;0.60;;;;;;;;;;5011410;28;20557;-82
2023/01/14 12:53:49;;;;;;;1.80;0.60;;;;;;;;;;4980461;28;20052;-82
2023/01/14 12:56:27;;;;;;;2.58;0.50;;;;;;;;;;5012301;28;20390;-81
2023/01/14 12:58:58;;;;;;;0.90;0.50;;;;;;;;;;5014174;28;20517;-82
2023/01/14 13:01:28;;;;;;;0.95;0.55;;;;;;;;;;5016492;28;20112;-82
2023/01/14 13:04:04;;;;;;;1.00;0.60;;;;;;;;;;5009425;28;20036;-82
2023/01/14 13:06:35;;;;;;;1.05;0.50;;;;;;;;;;5012462;28;20497;-82
2023/01/14 13:09:03;;;;;;;1.65;0.60;;;;;;;;;;5014540;28;20685;-82
2023/01/14 13:11:51;;;;;;;2.38;0.70;;;;;;;;;;5011426;28;20140;-82
2023/01/14 13:14:37;;;;;;;1.17;0.60;;;;;;;;;;5013489;28;20731;-82
2023/01/14 13:17:16;;;;;;;0.70;0.50;;;;;;;;;;5006803;28;20474;-82
2023/01/14 13:19:53;;;;;;;1.20;0.65;;;;;;;;;;5013293;28;20132;-82
2023/01/14 13:22:43;;;;;;;0.90;0.70;;;;;;;;;;5012627;28;20034;-82
2023/01/14 13:25:32;;;;;;;2.58;0.95;;;;;;;;;;5016198;28;20501;-82
2023/01/14 13:27:59;;;;;;;3.00;1.10;;;;;;;;;;5010316;28;20045;-82
2023/01/14 13:30:24;;;;;;;1.38;0.60;;;;;;;;;;5007725;28;20029;-82
2023/01/14 13:33:07;;;;;;;1.65;0.80;;;;;;;;;;5004943;28;20040;-82
2023/01/14 13:35:35;;;;;;;2.25;0.80;;;;;;;;;;5002945;28;20083;-82
2023/01/14 13:38:02;;;;;;;1.60;0.60;;;;;;;;;;5010446;28;20128;-83
2023/01/14 13:40:34;;;;;;;2.47;0.77;;;;;;;;;;5010883;28;20545;-82
2023/01/14 13:43:22;;;;;;;2.30;0.80;;;;;;;;;;5000372;28;20172;-82
2023/01/14 13:46:03;;;;;;;1.13;0.57;;;;;;;;;;5002770;28;20065;-82
2023/01/14 13:48:40;;;;;;;3.25;0.75;;;;;;;;;;5014250;28;20041;-82
2023/01/14 13:51:37;;;;;;;1.35;0.77;;;;;;;;;;5002135;28;20042;-82
2023/01/14 13:54:15;;;;;;;1.63;0.80;;;;;;;;;;4968064;28;20088;-82
2023/01/14 13:57:03;;;;;;;2.80;0.70;;;;;;;;;;5003007;28;20477;-82
2023/01/14 13:59:29;;;;;;;2.13;0.90;;;;;;;;;;5014894;28;20534;-82
2023/01/14 14:01:56;;;;;;;1.20;0.80;;;;;;;;;;4993755;28;20030;-82
2023/01/14 14:04:55;;;;;;;1.98;0.90;;;;;;;;;;4995329;28;20463;-82
2023/01/14 14:07:41;;;;;;;1.42;0.65;;;;;;;;;;4989946;28;20655;-82
2023/01/14 14:10:11;;;;;;;0.95;0.60;;;;;;;;;;4964719;28;20557;-81
2023/01/14 14:15:26;;;;;;;3.05;0.90;;;;;;;;;;5001976;28;20510;-81
2023/01/14 14:17:56;;;;;;;1.83;0.70;;;;;;;;;;5002233;28;20508;-82
2023/01/14 14:20:26;;;;;;;1.13;0.70;;;;;;;;;;5000292;28;20029;-82
2023/01/14 14:22:57;;;;;;;1.48;0.73;;;;;;;;;;4998911;28;20397;-82
2023/01/14 14:25:42;;;;;;;1.42;0.70;;;;;;;;;;5004931;28;20104;-82
2023/01/14 14:28:12;;;;;;;1.77;0.60;;;;;;;;;;5003315;28;20087;-82
2023/01/14 14:30:46;;;;;;;1.45;0.60;;;;;;;;;;5017778;28;20058;-82
2023/01/14 14:33:34;;;;;;;1.73;0.90;;;;;;;;;;5002507;28;20042;-82
2023/01/14 14:36:06;;;;;;;1.02;0.60;;;;;;;;;;4997820;28;20522;-81
2023/01/14 14:38:31;;;;;;;0.98;0.57;;;;;;;;;;4997414;28;20087;-82
2023/01/14 14:41:04;;;;;;;1.40;0.80;;;;;;;;;;4997965;28;20037;-82
2023/01/14 14:43:30;;;;;;;;;;;;;;;;;;4988972;28;20026;-82
2023/01/14 14:46:07;;;;;;;1.05;0.60;;;;;;;;;;4994116;28;19917;-82
2023/01/14 14:48:34;;;;;;;1.67;0.80;;;;;;;;;;4998551;28;20037;-82
2023/01/14 14:51:12;;;;;;;3.67;1.45;;;;;;;;;;4982161;28;20445;-82
2023/01/14 14:53:44;;;;;;;1.80;0.98;;;;;;;;;;5010820;28;20037;-82
2023/01/14 14:56:12;;;;;;;0.95;0.70;;;;;;;;;;4999956;28;20034;-82
2023/01/14 14:58:38;;;;;;;1.63;0.80;;;;;;;;;;5001020;28;20490;-82
2023/01/14 15:01:06;;;;;;;1.35;0.82;;;;;;;;;;4984761;28;20057;-82
2023/01/14 15:03:34;;;;;;;1.10;0.80;;;;;;;;;;5005558;28;20397;-82
2023/01/14 15:06:04;;;;;;;1.25;0.70;;;;;;;;;;4999986;28;21595;-82
2023/01/14 15:08:33;;;;;;;1.60;0.80;;;;;;;;;;4997580;28;20144;-82
2023/01/14 15:11:01;;;;;;;1.42;0.73;;;;;;;;;;4998000;28;20117;-82
2023/01/14 15:13:31;;;;;;;2.70;0.98;;;;;;;;;;5000489;28;20241;-82
2023/01/14 15:16:04;;;;;;;1.52;0.90;;;;;;;;;;5002684;28;20041;-82
2023/01/14 15:18:34;;;;;;;1.52;0.88;;;;;;;;;;4990168;28;20034;-82
2023/01/14 15:21:00;;;;;;;1.67;1.10;;;;;;;;;;5000179;28;20476;-82
2023/01/14 15:23:26;;;;;;;1.35;0.80;;;;;;;;;;5001571;28;20032;-82
2023/01/14 15:25:52;;;;;;;1.38;0.98;;;;;;;;;;5000288;28;20525;-82
2023/01/14 15:28:18;;;;;;;1.50;0.90;;;;;;;;;;4999556;28;20468;-82
2023/01/14 15:30:58;;;;;;;1.30;0.90;;;;;;;;;;5005538;28;20048;-82
2023/01/14 15:33:32;;;;;;;2.30;1.10;;;;;;;;;;5003618;28;20113;-82
2023/01/14 15:36:01;;;;;;;2.83;1.15;;;;;;;;;;5001219;28;20115;-82
2023/01/14 15:38:27;;;;;;;2.45;1.10;;;;;;;;;;5017831;28;20577;-82
2023/01/14 15:40:53;;;;;;;2.88;1.38;;;;;;;;;;4998064;28;20040;-82
2023/01/14 15:43:25;;;;;;;1.55;1.00;;;;;;;;;;4997856;28;20450;-82